| time (UTC) | temp F | wind direction | speed MPH | gust MPH | rain 1hr in | rain 24hr in | rain mn in | humidity % | barometer mb |
| 20260906003536 | 80 | 205 | 0.0 | 0.0 | 0.00 | 0.48 | 0.48 | 93 | 1009.3 |
| 20260906003036 | 80 | 205 | 0.0 | 2.0 | 0.00 | 0.48 | 0.48 | 93 | 1009.3 |
| 20260906002535 | 80 | 205 | 0.0 | 2.0 | 0.00 | 0.48 | 0.48 | 93 | 1009.2 |
| 20260906002037 | 80 | 205 | 0.0 | 1.0 | 0.00 | 0.48 | 0.48 | 92 | 1009.2 |
| 20260906001538 | 81 | 205 | 0.0 | 2.0 | 0.00 | 0.48 | 0.48 | 92 | 1009.3 |
| 20260906001135 | 81 | 205 | 0.0 | 2.0 | 0.00 | 0.48 | 0.48 | 92 | 1009.3 |
| 20260906000535 | 81 | 205 | 0.0 | 2.0 | 0.00 | 0.48 | 0.48 | 91 | 1009.4 |
| 20260906000035 | 81 | 205 | 0.0 | 0.0 | 0.00 | 0.48 | 0.48 | 92 | 1009.5 |
| 20260905235534 | 82 | 205 | 0.0 | 0.0 | 0.00 | 0.48 | 0.48 | 92 | 1009.4 |
| 20260905235035 | 82 | 205 | 0.0 | 0.0 | 0.00 | 0.48 | 0.48 | 92 | 1009.4 |
| 20260905234535 | 82 | 205 | 0.0 | 2.0 | 0.00 | 0.48 | 0.48 | 91 | 1009.3 |
| 20260905234034 | 82 | 205 | 0.0 | 2.0 | 0.00 | 0.48 | 0.48 | 91 | 1009.3 |
| 20260905233534 | 82 | 205 | 0.0 | 1.0 | 0.00 | 0.48 | 0.48 | 91 | 1009.3 |
| 20260905233034 | 82 | 205 | 0.0 | 2.0 | 0.00 | 0.48 | 0.48 | 91 | 1009.2 |
| 20260905232534 | 82 | 205 | 0.0 | 2.0 | 0.00 | 0.48 | 0.48 | 91 | 1009.2 |
| 20260905232034 | 82 | 205 | 0.0 | 2.0 | 0.00 | 0.48 | 0.48 | 90 | 1009.2 |
| 20260905231536 | 83 | 205 | 0.0 | 2.0 | 0.00 | 0.48 | 0.48 | 92 | 1009.2 |
| 20260905231033 | 83 | 205 | 0.0 | 2.0 | 0.00 | 0.48 | 0.48 | 92 | 1009.1 |
| 20260905230533 | 83 | 205 | 0.0 | 2.0 | 0.00 | 0.48 | 0.48 | 91 | 1009.2 |
| 20260905230034 | 83 | 152 | 0.0 | 2.0 | 0.00 | 0.48 | 0.48 | 90 | 1009.1 |
| 20260905225532 | 83 | 42 | 0.0 | 2.0 | 0.00 | 0.48 | 0.48 | 91 | 1009.1 |
| 20260905225032 | 84 | 301 | 0.0 | 2.0 | 0.00 | 0.48 | 0.48 | 90 | 1009.1 |
| 20260905224605 | 84 | 232 | 0.0 | 0.0 | 0.00 | 0.48 | 0.48 | 89 | 1009.2 |
| 20260905224032 | 84 | 232 | 0.0 | 1.0 | 0.00 | 0.48 | 0.48 | 89 | 1009.2 |
| 20260905223531 | 84 | 232 | 0.0 | 2.0 | 0.00 | 0.48 | 0.48 | 89 | 1009.2 |
| 20260905223030 | 84 | 232 | 0.0 | 2.0 | 0.00 | 0.48 | 0.48 | 87 | 1009.3 |
| 20260905222531 | 84 | 232 | 0.0 | 2.0 | 0.00 | 0.48 | 0.48 | 85 | 1009.4 |
| 20260905222030 | 84 | 232 | 0.0 | 2.0 | 0.00 | 0.48 | 0.48 | 86 | 1009.4 |
| 20260905221530 | 84 | 232 | 0.0 | 3.0 | 0.00 | 0.48 | 0.48 | 85 | 1009.3 |
| 20260905221032 | 84 | 232 | 0.0 | 3.0 | 0.00 | 0.48 | 0.48 | 83 | 1009.5 |
| 20260905220529 | 84 | 240 | 0.0 | 4.0 | 0.00 | 0.48 | 0.48 | 85 | 1009.5 |
| 20260905220029 | 84 | 197 | 0.0 | 4.0 | 0.00 | 0.48 | 0.48 | 83 | 1009.6 |
| 20260905215529 | 85 | 190 | 1.0 | 5.0 | 0.00 | 0.48 | 0.48 | 84 | 1009.6 |
| 20260905215030 | 85 | 206 | 1.0 | 5.0 | 0.00 | 0.48 | 0.48 | 84 | 1009.6 |
| 20260905214528 | 86 | 194 | 1.0 | 4.0 | 0.00 | 0.48 | 0.48 | 82 | 1009.6 |
| 20260905214027 | 85 | 221 | 0.0 | 2.0 | 0.00 | 0.48 | 0.48 | 85 | 1009.7 |
| 20260905213526 | 85 | 263 | 0.0 | 2.0 | 0.00 | 0.48 | 0.48 | 83 | 1009.7 |
| 20260905213027 | 85 | 191 | 0.0 | 2.0 | 0.00 | 0.48 | 0.48 | 84 | 1009.8 |
| 20260905212533 | 85 | 235 | 0.0 | 2.0 | 0.00 | 0.48 | 0.48 | 84 | 1009.9 |
| 20260905212026 | 85 | 262 | 0.0 | 4.0 | 0.00 | 0.48 | 0.48 | 84 | 1010.0 |
| 20260905211540 | 84 | 175 | 0.0 | 4.0 | 0.00 | 0.48 | 0.48 | 84 | 1010.0 |
| 20260905211028 | 84 | 214 | 0.0 | 3.0 | 0.00 | 0.48 | 0.48 | 88 | 1010.0 |
| 20260905210525 | 83 | 185 | 1.0 | 2.0 | 0.00 | 0.48 | 0.48 | 89 | 1009.9 |
| 20260905210038 | 82 | 274 | 0.0 | 2.0 | 0.00 | 0.48 | 0.48 | 92 | 1009.9 |
| 20260905205525 | 81 | 274 | 1.0 | 4.0 | 0.00 | 0.48 | 0.48 | 93 | 1009.9 |
| 20260905205025 | 81 | 211 | 0.0 | 4.0 | 0.00 | 0.48 | 0.48 | 93 | 1009.8 |
| 20260905204525 | 80 | 222 | 2.0 | 4.0 | 0.01 | 0.48 | 0.48 | 94 | 1009.8 |
| 20260905204024 | 80 | 205 | 1.0 | 4.0 | 0.01 | 0.48 | 0.48 | 94 | 1009.8 |
| 20260905203525 | 79 | 191 | 1.0 | 3.0 | 0.01 | 0.48 | 0.48 | 94 | 1009.8 |
| 20260905203026 | 79 | 223 | 0.0 | 4.0 | 0.01 | 0.48 | 0.48 | 94 | 1009.8 |
| 20260905202526 | 79 | 180 | 1.0 | 4.0 | 0.01 | 0.48 | 0.48 | 94 | 1009.9 |
| 20260905202022 | 79 | 223 | 1.0 | 3.0 | 0.02 | 0.48 | 0.48 | 94 | 1010.0 |
| 20260905201523 | 79 | 250 | 0.0 | 3.0 | 0.02 | 0.48 | 0.48 | 94 | 1010.0 |
| 20260905201021 | 79 | 214 | 1.0 | 3.0 | 0.02 | 0.48 | 0.48 | 94 | 1010.0 |
| 20260905200526 | 79 | 149 | 0.0 | 3.0 | 0.03 | 0.48 | 0.48 | 94 | 1010.3 |
| 20260905200026 | 79 | 217 | 1.0 | 3.0 | 0.03 | 0.48 | 0.48 | 94 | 1010.4 |
| 20260905195521 | 78 | 176 | 1.0 | 4.0 | 0.04 | 0.48 | 0.48 | 94 | 1010.4 |
| 20260905195023 | 78 | 233 | 2.0 | 4.0 | 0.06 | 0.48 | 0.48 | 93 | 1010.5 |
| 20260905194520 | 79 | 221 | 0.0 | 6.0 | 0.16 | 0.47 | 0.47 | 93 | 1010.5 |
| 20260905194020 | 78 | 153 | 0.0 | 6.0 | 0.22 | 0.47 | 0.47 | 92 | 1010.3 |
| 20260905193520 | 79 | 159 | 0.0 | 3.0 | 0.38 | 0.47 | 0.47 | 92 | 1010.6 |
| 20260905193018 | 79 | 159 | 0.0 | 4.0 | 0.47 | 0.47 | 0.47 | 92 | 1010.7 |
| 20260905192519 | 79 | 163 | 1.0 | 7.0 | 0.47 | 0.47 | 0.47 | 92 | 1010.8 |
| 20260905192018 | 80 | 121 | 1.0 | 7.0 | 0.46 | 0.46 | 0.46 | 93 | 1010.9 |
| 20260905191517 | 80 | 188 | 1.0 | 5.0 | 0.46 | 0.46 | 0.46 | 92 | 1010.8 |
| 20260905191118 | 80 | 160 | 1.0 | 6.0 | 0.46 | 0.46 | 0.46 | 92 | 1010.9 |
| 20260905190517 | 80 | 44 | 3.0 | 6.0 | 0.45 | 0.45 | 0.45 | 92 | 1010.8 |
| 20260905190018 | 80 | 32 | 3.0 | 4.0 | 0.45 | 0.45 | 0.45 | 92 | 1011.0 |
| 20260905185517 | 81 | 47 | 3.0 | 5.0 | 0.43 | 0.43 | 0.43 | 91 | 1011.1 |
| 20260905185017 | 81 | 92 | 2.0 | 6.0 | 0.42 | 0.42 | 0.42 | 88 | 1011.2 |
| 20260905184526 | 82 | 279 | 0.0 | 5.0 | 0.31 | 0.31 | 0.31 | 88 | 1011.2 |
| 20260905184017 | 82 | 279 | 0.0 | 5.0 | 0.24 | 0.24 | 0.24 | 88 | 1011.3 |
| 20260905183515 | 84 | 267 | 1.0 | 3.0 | 0.08 | 0.08 | 0.08 | 87 | 1011.2 |
| 20260905183015 | 85 | 263 | 0.0 | 3.0 | 0.00 | 0.00 | 0.00 | 85 | 1011.2 |
| 20260905182515 | 85 | 225 | 1.0 | 3.0 | 0.00 | 0.00 | 0.00 | 83 | 1011.3 |
| 20260905182014 | 86 | 283 | 0.0 | 4.0 | 0.00 | 0.00 | 0.00 | 81 | 1011.2 |
| 20260905181515 | 86 | 283 | 0.0 | 4.0 | 0.00 | 0.00 | 0.00 | 80 | 1011.2 |
| 20260905181014 | 87 | 74 | 0.0 | 5.0 | 0.00 | 0.00 | 0.00 | 77 | 1011.2 |
| 20260905180518 | 87 | 59 | 2.0 | 9.0 | 0.00 | 0.00 | 0.00 | 77 | 1011.2 |
| 20260905180014 | 88 | 44 | 1.0 | 5.0 | 0.00 | 0.00 | 0.00 | 72 | 1011.3 |
| 20260905175513 | 88 | 320 | 1.0 | 4.0 | 0.00 | 0.68 | 0.00 | 72 | 1011.4 |
| 20260905175013 | 88 | 285 | 0.0 | 6.0 | 0.00 | 0.68 | 0.00 | 71 | 1011.4 |
| 20260905174513 | 89 | 13 | 1.0 | 6.0 | 0.00 | 0.68 | 0.00 | 70 | 1011.4 |
| 20260905174014 | 89 | 21 | 0.0 | 2.0 | 0.00 | 0.68 | 0.00 | 72 | 1011.4 |
| 20260905173512 | 89 | 88 | 0.0 | 4.0 | 0.00 | 0.68 | 0.00 | 72 | 1011.4 |
| 20260905173012 | 88 | 349 | 0.0 | 4.0 | 0.00 | 0.68 | 0.00 | 73 | 1011.4 |
| 20260905172511 | 88 | 220 | 1.0 | 3.0 | 0.00 | 0.68 | 0.00 | 74 | 1011.5 |
| 20260905172011 | 88 | 281 | 0.0 | 4.0 | 0.00 | 0.68 | 0.00 | 75 | 1011.7 |
| 20260905171508 | 88 | 59 | 1.0 | 4.0 | 0.00 | 0.68 | 0.00 | 75 | 1011.7 |
| 20260905171007 | 87 | 333 | 1.0 | 4.0 | 0.00 | 0.68 | 0.00 | 77 | 1011.8 |
| 20260905170506 | 87 | 271 | 0.0 | 6.0 | 0.00 | 0.68 | 0.00 | 78 | 1011.8 |
| 20260905170005 | 87 | 45 | 3.0 | 6.0 | 0.00 | 0.68 | 0.00 | 78 | 1011.8 |
| 20260905165503 | 86 | 320 | 1.0 | 6.0 | 0.00 | 0.75 | 0.00 | 80 | 1011.9 |
| 20260905165003 | 86 | 13 | 2.0 | 6.0 | 0.00 | 0.75 | 0.00 | 79 | 1012.0 |
| 20260905164503 | 86 | 78 | 4.0 | 6.0 | 0.00 | 0.75 | 0.00 | 81 | 1012.0 |
| 20260905164002 | 86 | 30 | 1.0 | 4.0 | 0.00 | 0.75 | 0.00 | 83 | 1012.0 |
| 20260905163501 | 85 | 321 | 0.0 | 2.0 | 0.00 | 0.75 | 0.00 | 83 | 1012.0 |
| 20260905163002 | 85 | 307 | 0.0 | 3.0 | 0.00 | 0.75 | 0.00 | 82 | 1012.0 |
| 20260905162501 | 85 | 300 | 0.0 | 4.0 | 0.00 | 0.75 | 0.00 | 82 | 1012.1 |
| 20260905162100 | 85 | 279 | 1.0 | 4.0 | 0.00 | 0.75 | 0.00 | 81 | 1012.1 |
| 20260905161614 | 85 | 337 | 2.0 | 4.0 | 0.00 | 0.75 | 0.00 | 83 | 1012.1 |
| 20260905161100 | 85 | 350 | 2.0 | 4.0 | 0.00 | 0.75 | 0.00 | 81 | 1012.1 |
| 20260905160559 | 85 | 329 | 2.0 | 4.0 | 0.00 | 0.75 | 0.00 | 82 | 1012.1 |
| 20260905160100 | 85 | 355 | 0.0 | 2.0 | 0.00 | 0.75 | 0.00 | 83 | 1012.1 |
| 20260905155601 | 85 | 355 | 0.0 | 2.0 | 0.00 | 0.75 | 0.00 | 82 | 1012.2 |
| 20260905155058 | 85 | 355 | 0.0 | 2.0 | 0.00 | 0.75 | 0.00 | 82 | 1012.2 |
| 20260905154610 | 84 | 15 | 0.0 | 2.0 | 0.00 | 0.75 | 0.00 | 83 | 1012.1 |
| 20260905154102 | 84 | 15 | 0.0 | 2.0 | 0.00 | 0.75 | 0.00 | 83 | 1012.1 |
| 20260905153558 | 84 | 15 | 0.0 | 2.0 | 0.00 | 0.75 | 0.00 | 83 | 1012.0 |
| 20260905153058 | 84 | 19 | 1.0 | 3.0 | 0.00 | 0.75 | 0.00 | 83 | 1012.1 |
| 20260905152557 | 84 | 5 | 1.0 | 3.0 | 0.00 | 0.75 | 0.00 | 84 | 1012.1 |
| 20260905152057 | 85 | 331 | 0.0 | 2.0 | 0.00 | 0.75 | 0.00 | 84 | 1012.0 |
| 20260905151557 | 85 | 316 | 0.0 | 4.0 | 0.00 | 0.75 | 0.00 | 83 | 1012.1 |
| 20260905151056 | 85 | 253 | 0.0 | 4.0 | 0.00 | 0.75 | 0.00 | 82 | 1012.1 |
| 20260905150555 | 86 | 59 | 1.0 | 4.0 | 0.00 | 0.75 | 0.00 | 83 | 1012.0 |
| 20260905145555 | 86 | 39 | 1.0 | 3.0 | 0.00 | 0.75 | 0.00 | 83 | 1012.0 |
| 20260905145053 | 85 | 119 | 1.0 | 3.0 | 0.00 | 0.75 | 0.00 | 84 | 1012.0 |
| 20260905144552 | 84 | 128 | 0.0 | 2.0 | 0.00 | 0.75 | 0.00 | 86 | 1011.9 |
| 20260905144051 | 83 | 280 | 0.0 | 2.0 | 0.00 | 0.75 | 0.00 | 87 | 1012.0 |
| 20260905143550 | 83 | 280 | 0.0 | 2.0 | 0.00 | 0.75 | 0.00 | 87 | 1012.1 |
| 20260905143051 | 84 | 280 | 0.0 | 2.0 | 0.00 | 0.75 | 0.00 | 86 | 1012.1 |
| 20260905142552 | 84 | 348 | 0.0 | 3.0 | 0.00 | 0.75 | 0.00 | 86 | 1012.1 |
| 20260905142049 | 84 | 348 | 1.0 | 3.0 | 0.00 | 0.75 | 0.00 | 86 | 1012.0 |
| 20260905141548 | 84 | 115 | 0.0 | 2.0 | 0.00 | 0.75 | 0.00 | 85 | 1012.0 |
| 20260905141048 | 84 | 346 | 1.0 | 2.0 | 0.00 | 0.75 | 0.00 | 86 | 1012.1 |
| 20260905140546 | 84 | 85 | 0.0 | 2.0 | 0.00 | 0.75 | 0.00 | 88 | 1012.0 |
| 20260905140045 | 83 | 188 | 1.0 | 2.0 | 0.00 | 0.75 | 0.00 | 87 | 1012.0 |
| 20260905135543 | 83 | 38 | 0.0 | 2.0 | 0.00 | 0.75 | 0.00 | 89 | 1012.0 |
| 20260905135042 | 82 | 38 | 0.0 | 2.0 | 0.00 | 0.75 | 0.00 | 89 | 1011.9 |
| 20260905134540 | 82 | 153 | 0.0 | 2.0 | 0.00 | 0.75 | 0.00 | 90 | 1011.8 |
| 20260905134039 | 81 | 90 | 0.0 | 2.0 | 0.00 | 0.75 | 0.00 | 92 | 1011.8 |
| 20260905133538 | 81 | 90 | 0.0 | 2.0 | 0.00 | 0.75 | 0.00 | 93 | 1011.8 |
| 20260905133038 | 80 | 90 | 1.0 | 3.0 | 0.00 | 0.75 | 0.00 | 94 | 1011.9 |
| 20260905132533 | 80 | 96 | 0.0 | 3.0 | 0.00 | 0.75 | 0.00 | 95 | 1011.9 |
| 20260905132032 | 79 | 69 | 0.0 | 2.0 | 0.00 | 0.75 | 0.00 | 96 | 1011.8 |
| 20260905131530 | 79 | 69 | 0.0 | 2.0 | 0.00 | 0.75 | 0.00 | 96 | 1011.8 |
| 20260905131029 | 79 | 69 | 0.0 | 2.0 | 0.00 | 0.75 | 0.00 | 97 | 1011.8 |
| 20260905130528 | 78 | 69 | 0.0 | 2.0 | 0.00 | 0.75 | 0.00 | 97 | 1011.8 |
| 20260905130028 | 78 | 69 | 0.0 | 2.0 | 0.00 | 0.75 | 0.00 | 97 | 1011.8 |
| 20260905125528 | 77 | 98 | 0.0 | 2.0 | 0.00 | 0.75 | 0.00 | 97 | 1011.8 |
| 20260905125025 | 77 | 98 | 0.0 | 2.0 | 0.00 | 0.75 | 0.00 | 97 | 1011.6 |
| 20260905124523 | 76 | 98 | 0.0 | 2.0 | 0.00 | 0.75 | 0.00 | 97 | 1011.7 |
| 20260905124021 | 76 | 98 | 0.0 | 2.0 | 0.00 | 0.75 | 0.00 | 97 | 1011.7 |
| 20260905123520 | 75 | 98 | 0.0 | 2.0 | 0.00 | 0.75 | 0.00 | 97 | 1011.6 |
| 20260905123018 | 75 | 98 | 0.0 | 2.0 | 0.00 | 0.75 | 0.00 | 97 | 1011.5 |
| 20260905122518 | 75 | 96 | 0.0 | 2.0 | 0.00 | 0.75 | 0.00 | 97 | 1011.5 |
| 20260905122018 | 75 | 96 | 0.0 | 2.0 | 0.00 | 0.75 | 0.00 | 97 | 1011.5 |
| 20260905121516 | 75 | 96 | 0.0 | 2.0 | 0.00 | 0.75 | 0.00 | 97 | 1011.5 |
| 20260905121017 | 74 | 96 | 0.0 | 2.0 | 0.00 | 0.75 | 0.00 | 97 | 1011.5 |
| 20260905120518 | 74 | 96 | 0.0 | 2.0 | 0.00 | 0.75 | 0.00 | 96 | 1011.5 |
| 20260905120015 | 74 | 96 | 0.0 | 1.0 | 0.00 | 0.75 | 0.00 | 96 | 1011.4 |
| 20260905115516 | 74 | 96 | 0.0 | 0.0 | 0.00 | 0.75 | 0.00 | 96 | 1011.4 |
| 20260905115018 | 74 | 96 | 0.0 | 0.0 | 0.00 | 0.75 | 0.00 | 96 | 1011.3 |
| 20260905114513 | 74 | 96 | 0.0 | 2.0 | 0.00 | 0.75 | 0.00 | 96 | 1011.3 |
| 20260905114013 | 74 | 96 | 0.0 | 2.0 | 0.00 | 0.75 | 0.00 | 96 | 1011.3 |
| 20260905113515 | 74 | 323 | 0.0 | 0.0 | 0.00 | 0.75 | 0.00 | 96 | 1011.3 |
| 20260905113012 | 74 | 323 | 0.0 | 0.0 | 0.00 | 0.75 | 0.00 | 96 | 1011.2 |
| 20260905112512 | 74 | 323 | 0.0 | 0.0 | 0.00 | 0.75 | 0.00 | 96 | 1011.1 |
| 20260905112010 | 74 | 323 | 0.0 | 0.0 | 0.00 | 0.75 | 0.00 | 96 | 1011.1 |
| 20260905111510 | 74 | 323 | 0.0 | 0.0 | 0.00 | 0.75 | 0.00 | 96 | 1011.1 |
| 20260905111011 | 74 | 323 | 0.0 | 0.0 | 0.00 | 0.75 | 0.00 | 96 | 1011.1 |
| 20260905110510 | 74 | 323 | 0.0 | 2.0 | 0.00 | 0.75 | 0.00 | 96 | 1011.1 |
| 20260905110010 | 75 | 323 | 0.0 | 2.0 | 0.00 | 0.75 | 0.00 | 96 | 1011.1 |
| 20260905105510 | 75 | 323 | 0.0 | 2.0 | 0.00 | 0.75 | 0.00 | 96 | 1011.0 |
| 20260905105010 | 74 | 323 | 0.0 | 0.0 | 0.00 | 0.75 | 0.00 | 96 | 1011.0 |
| 20260905104510 | 74 | 323 | 0.0 | 2.0 | 0.00 | 0.75 | 0.00 | 96 | 1011.0 |
| 20260905104012 | 75 | 323 | 0.0 | 2.0 | 0.00 | 0.75 | 0.00 | 96 | 1011.0 |
| 20260905103512 | 74 | 323 | 0.0 | 2.0 | 0.00 | 0.75 | 0.00 | 96 | 1011.0 |
| 20260905103009 | 74 | 323 | 0.0 | 2.0 | 0.00 | 0.75 | 0.00 | 96 | 1011.0 |
| 20260905102509 | 74 | 323 | 0.0 | 2.0 | 0.00 | 0.75 | 0.00 | 97 | 1011.0 |
| 20260905102008 | 74 | 323 | 0.0 | 2.0 | 0.00 | 0.75 | 0.00 | 96 | 1011.0 |
| 20260905101508 | 74 | 323 | 0.0 | 2.0 | 0.00 | 0.75 | 0.00 | 96 | 1011.0 |
| 20260905101008 | 74 | 323 | 0.0 | 2.0 | 0.00 | 0.75 | 0.00 | 96 | 1011.0 |
| 20260905100508 | 74 | 323 | 0.0 | 2.0 | 0.00 | 0.75 | 0.00 | 96 | 1010.9 |
| 20260905100008 | 74 | 323 | 0.0 | 2.0 | 0.00 | 0.75 | 0.00 | 96 | 1010.9 |
| 20260905095507 | 74 | 323 | 0.0 | 2.0 | 0.00 | 0.75 | 0.00 | 96 | 1010.9 |
| 20260905095007 | 74 | 323 | 0.0 | 0.0 | 0.00 | 0.75 | 0.00 | 96 | 1010.9 |
| 20260905094508 | 74 | 323 | 0.0 | 0.0 | 0.00 | 0.75 | 0.00 | 96 | 1010.9 |
| 20260905094007 | 74 | 323 | 0.0 | 0.0 | 0.00 | 0.75 | 0.00 | 96 | 1010.9 |
| 20260905093507 | 74 | 323 | 0.0 | 1.0 | 0.00 | 0.75 | 0.00 | 96 | 1010.9 |
| 20260905093006 | 74 | 323 | 0.0 | 2.0 | 0.00 | 0.75 | 0.00 | 96 | 1010.8 |
| 20260905092508 | 74 | 323 | 0.0 | 2.0 | 0.00 | 0.75 | 0.00 | 96 | 1010.8 |
| 20260905092009 | 74 | 323 | 0.0 | 2.0 | 0.00 | 0.75 | 0.00 | 96 | 1010.8 |
| 20260905091510 | 74 | 323 | 0.0 | 0.0 | 0.00 | 0.75 | 0.00 | 96 | 1010.8 |
| 20260905091009 | 74 | 323 | 0.0 | 2.0 | 0.00 | 0.75 | 0.00 | 96 | 1010.8 |
| 20260905090506 | 74 | 323 | 0.0 | 2.0 | 0.00 | 0.75 | 0.00 | 96 | 1010.8 |
| 20260905090009 | 74 | 323 | 0.0 | 2.0 | 0.00 | 0.75 | 0.00 | 96 | 1010.7 |
| 20260905085505 | 74 | 323 | 0.0 | 2.0 | 0.00 | 0.75 | 0.00 | 96 | 1010.8 |
| 20260905085006 | 74 | 323 | 0.0 | 2.0 | 0.00 | 0.75 | 0.00 | 96 | 1010.8 |
| 20260905084505 | 74 | 323 | 0.0 | 0.0 | 0.00 | 0.75 | 0.00 | 96 | 1010.8 |
| 20260905084105 | 74 | 323 | 0.0 | 0.0 | 0.00 | 0.75 | 0.00 | 96 | 1010.8 |
| 20260905083505 | 74 | 323 | 0.0 | 0.0 | 0.00 | 0.75 | 0.00 | 96 | 1010.7 |
| 20260905083005 | 74 | 323 | 0.0 | 0.0 | 0.00 | 0.75 | 0.00 | 96 | 1010.7 |
| 20260905082504 | 74 | 323 | 0.0 | 0.0 | 0.00 | 0.75 | 0.00 | 96 | 1010.6 |
| 20260905082004 | 74 | 323 | 0.0 | 0.0 | 0.00 | 0.75 | 0.00 | 96 | 1010.6 |
| 20260905081503 | 74 | 323 | 0.0 | 0.0 | 0.00 | 0.75 | 0.00 | 96 | 1010.6 |
| 20260905081005 | 74 | 323 | 0.0 | 0.0 | 0.00 | 0.75 | 0.00 | 96 | 1010.5 |
| 20260905080503 | 74 | 323 | 0.0 | 0.0 | 0.00 | 0.75 | 0.00 | 96 | 1010.5 |
| 20260905080003 | 74 | 323 | 0.0 | 0.0 | 0.00 | 0.75 | 0.00 | 96 | 1010.6 |
| 20260905075503 | 74 | 323 | 0.0 | 0.0 | 0.00 | 0.75 | 0.00 | 96 | 1010.7 |
| 20260905075002 | 74 | 323 | 0.0 | 1.0 | 0.00 | 0.75 | 0.00 | 96 | 1010.7 |
| 20260905074504 | 74 | 323 | 0.0 | 1.0 | 0.00 | 0.75 | 0.00 | 96 | 1010.7 |
| 20260905074002 | 74 | 323 | 0.0 | 2.0 | 0.00 | 0.75 | 0.00 | 96 | 1010.7 |
| 20260905073502 | 74 | 323 | 0.0 | 2.0 | 0.00 | 0.75 | 0.00 | 96 | 1010.8 |
| 20260905073006 | 74 | 323 | 0.0 | 0.0 | 0.00 | 0.75 | 0.00 | 96 | 1010.8 |
| 20260905072503 | 74 | 323 | 0.0 | 2.0 | 0.00 | 0.75 | 0.00 | 96 | 1010.7 |
| 20260905072001 | 74 | 323 | 0.0 | 2.0 | 0.00 | 0.75 | 0.00 | 96 | 1010.7 |
| 20260905071612 | 74 | 323 | 0.0 | 2.0 | 0.00 | 0.75 | 0.00 | 96 | 1010.7 |
| 20260905071501 | 74 | 323 | 0.0 | 0.0 | 0.00 | 0.75 | 0.00 | 96 | 1010.7 |
| 20260905071001 | 74 | 323 | 0.0 | 2.0 | 0.00 | 0.75 | 0.00 | 96 | 1010.7 |
| 20260905070603 | 74 | 323 | 0.0 | 2.0 | 0.00 | 0.75 | 0.00 | 96 | 1010.7 |
| 20260905065603 | 74 | 323 | 0.0 | 0.0 | 0.00 | 0.75 | 0.00 | 96 | 1010.6 |
| 20260905065100 | 74 | 323 | 0.0 | 1.0 | 0.00 | 0.75 | 0.00 | 96 | 1010.5 |
| 20260905064618 | 74 | 323 | 0.0 | 2.0 | 0.00 | 0.75 | 0.00 | 96 | 1010.5 |
| 20260905064059 | 74 | 323 | 0.0 | 2.0 | 0.00 | 0.75 | 0.00 | 96 | 1010.5 |
| 20260905063558 | 74 | 323 | 0.0 | 2.0 | 0.00 | 0.75 | 0.00 | 96 | 1010.5 |
| 20260905063059 | 74 | 323 | 0.0 | 2.0 | 0.00 | 0.75 | 0.00 | 96 | 1010.5 |
| 20260905062558 | 74 | 323 | 0.0 | 2.0 | 0.00 | 0.75 | 0.00 | 96 | 1010.4 |
| 20260905062059 | 74 | 323 | 0.0 | 0.0 | 0.00 | 0.75 | 0.00 | 96 | 1010.5 |
| 20260905061605 | 74 | 323 | 0.0 | 0.0 | 0.00 | 0.75 | 0.00 | 96 | 1010.5 |
| 20260905061056 | 74 | 323 | 0.0 | 0.0 | 0.00 | 0.75 | 0.00 | 96 | 1010.5 |
| 20260905060600 | 74 | 323 | 0.0 | 0.0 | 0.00 | 0.75 | 0.00 | 96 | 1010.6 |
| 20260905060056 | 74 | 323 | 0.0 | 0.0 | 0.00 | 0.75 | 0.00 | 96 | 1010.6 |
| 20260905055555 | 75 | 323 | 0.0 | 0.0 | 0.00 | 0.86 | 0.00 | 96 | 1010.6 |
| 20260905055057 | 75 | 323 | 0.0 | 0.0 | 0.00 | 0.86 | 0.00 | 96 | 1010.6 |
| 20260905054703 | 75 | 323 | 0.0 | 0.0 | 0.00 | 0.86 | 0.00 | 96 | 1010.6 |
| 20260905054055 | 75 | 323 | 0.0 | 0.0 | 0.00 | 0.86 | 0.00 | 96 | 1010.5 |
| 20260905053554 | 75 | 323 | 0.0 | 0.0 | 0.00 | 0.86 | 0.00 | 96 | 1010.7 |
| 20260905053052 | 75 | 323 | 0.0 | 0.0 | 0.00 | 0.86 | 0.00 | 96 | 1010.8 |
| 20260905052552 | 75 | 323 | 0.0 | 0.0 | 0.00 | 0.86 | 0.00 | 96 | 1010.9 |
| 20260905052053 | 75 | 323 | 0.0 | 0.0 | 0.00 | 0.86 | 0.00 | 96 | 1010.9 |
| 20260905051552 | 75 | 323 | 0.0 | 0.0 | 0.00 | 0.86 | 0.00 | 96 | 1010.8 |
| 20260905051051 | 75 | 323 | 0.0 | 0.0 | 0.00 | 0.86 | 0.00 | 96 | 1010.9 |
| 20260905050549 | 75 | 323 | 0.0 | 0.0 | 0.00 | 0.86 | 0.00 | 96 | 1011.1 |
| 20260905050049 | 75 | 323 | 0.0 | 0.0 | 0.00 | 0.86 | 0.00 | 96 | 1011.1 |
| 20260905045547 | 75 | 323 | 0.0 | 0.0 | 0.00 | 0.89 | 0.86 | 96 | 1011.1 |
| 20260905045047 | 75 | 323 | 0.0 | 0.0 | 0.00 | 0.89 | 0.86 | 96 | 1011.2 |
| 20260905044557 | 75 | 323 | 0.0 | 0.0 | 0.00 | 0.89 | 0.86 | 96 | 1011.3 |
| 20260905044046 | 75 | 323 | 0.0 | 0.0 | 0.00 | 0.89 | 0.86 | 96 | 1011.3 |
| 20260905043549 | 75 | 323 | 0.0 | 0.0 | 0.00 | 0.89 | 0.86 | 96 | 1011.3 |
| 20260905043046 | 75 | 323 | 0.0 | 0.0 | 0.00 | 0.89 | 0.86 | 96 | 1011.3 |
| 20260905042545 | 75 | 323 | 0.0 | 0.0 | 0.00 | 0.89 | 0.86 | 96 | 1011.4 |
| 20260905042045 | 75 | 323 | 0.0 | 0.0 | 0.00 | 0.89 | 0.86 | 95 | 1011.5 |
| 20260905041545 | 75 | 323 | 0.0 | 0.0 | 0.00 | 0.89 | 0.86 | 95 | 1011.5 |
| 20260905041045 | 75 | 323 | 0.0 | 0.0 | 0.00 | 0.89 | 0.86 | 95 | 1011.5 |
| 20260905040546 | 75 | 323 | 0.0 | 0.0 | 0.00 | 0.89 | 0.86 | 95 | 1011.5 |
| 20260905040047 | 75 | 323 | 0.0 | 0.0 | 0.00 | 0.89 | 0.86 | 95 | 1011.5 |
| 20260905035545 | 75 | 323 | 0.0 | 1.0 | 0.00 | 0.89 | 0.86 | 95 | 1011.7 |
| 20260905035045 | 76 | 323 | 0.0 | 2.0 | 0.00 | 0.89 | 0.86 | 95 | 1011.8 |
| 20260905034550 | 76 | 323 | 0.0 | 2.0 | 0.00 | 0.89 | 0.86 | 95 | 1011.9 |
| 20260905034044 | 76 | 323 | 0.0 | 2.0 | 0.00 | 0.89 | 0.86 | 95 | 1011.9 |
| 20260905033544 | 76 | 323 | 0.0 | 0.0 | 0.00 | 0.89 | 0.86 | 95 | 1011.9 |
| 20260905033044 | 76 | 323 | 0.0 | 0.0 | 0.00 | 0.89 | 0.86 | 95 | 1011.9 |
| 20260905032546 | 76 | 323 | 0.0 | 0.0 | 0.00 | 0.89 | 0.86 | 95 | 1011.9 |
| 20260905032043 | 76 | 323 | 0.0 | 2.0 | 0.00 | 0.89 | 0.86 | 95 | 1011.9 |
| 20260905031643 | 76 | 323 | 0.0 | 2.0 | 0.00 | 0.89 | 0.86 | 95 | 1011.9 |
| 20260905031042 | 76 | 323 | 0.0 | 2.0 | 0.00 | 0.89 | 0.86 | 95 | 1011.8 |
| 20260905030544 | 76 | 323 | 0.0 | 2.0 | 0.00 | 0.89 | 0.86 | 95 | 1011.8 |
| 20260905030044 | 76 | 87 | 0.0 | 2.0 | 0.00 | 0.89 | 0.86 | 95 | 1011.8 |
| 20260905025542 | 76 | 87 | 0.0 | 2.0 | 0.00 | 0.89 | 0.86 | 95 | 1011.9 |
| 20260905025042 | 76 | 87 | 0.0 | 2.0 | 0.00 | 0.89 | 0.86 | 95 | 1011.9 |
| 20260905024555 | 76 | 103 | 0.0 | 3.0 | 0.00 | 0.89 | 0.86 | 95 | 1012.0 |
| 20260905024042 | 76 | 103 | 0.0 | 3.0 | 0.00 | 0.89 | 0.86 | 95 | 1012.0 |
| 20260905023542 | 76 | 94 | 1.0 | 3.0 | 0.00 | 0.89 | 0.86 | 95 | 1012.0 |
| 20260905023042 | 76 | 74 | 0.0 | 2.0 | 0.00 | 0.89 | 0.86 | 95 | 1011.9 |
| 20260905022541 | 76 | 74 | 0.0 | 2.0 | 0.00 | 0.89 | 0.86 | 95 | 1012.0 |
| 20260905022041 | 76 | 74 | 0.0 | 2.0 | 0.00 | 0.89 | 0.86 | 95 | 1011.9 |
| 20260905021541 | 77 | 74 | 0.0 | 2.0 | 0.00 | 0.89 | 0.86 | 95 | 1011.9 |
| 20260905021040 | 77 | 74 | 0.0 | 2.0 | 0.00 | 0.89 | 0.86 | 95 | 1011.9 |
| 20260905020544 | 77 | 74 | 0.0 | 2.0 | 0.00 | 0.89 | 0.86 | 95 | 1011.8 |
| 20260905020051 | 77 | 74 | 0.0 | 1.0 | 0.00 | 0.89 | 0.86 | 95 | 1011.7 |
| 20260905015541 | 77 | 74 | 0.0 | 0.0 | 0.00 | 0.89 | 0.86 | 95 | 1011.7 |
| 20260905015042 | 77 | 74 | 0.0 | 2.0 | 0.00 | 0.89 | 0.86 | 95 | 1011.7 |
| 20260905014540 | 77 | 74 | 0.0 | 2.0 | 0.00 | 0.89 | 0.86 | 95 | 1011.6 |
| 20260905014042 | 77 | 74 | 0.0 | 2.0 | 0.00 | 0.89 | 0.86 | 95 | 1011.5 |
| 20260905013541 | 77 | 74 | 0.0 | 2.0 | 0.00 | 0.89 | 0.86 | 95 | 1011.4 |
| 20260905013039 | 77 | 74 | 0.0 | 2.0 | 0.00 | 0.89 | 0.86 | 95 | 1011.4 |
| 20260905012542 | 77 | 74 | 0.0 | 1.0 | 0.00 | 0.89 | 0.86 | 95 | 1011.5 |
| 20260905012040 | 77 | 74 | 0.0 | 1.0 | 0.00 | 0.89 | 0.86 | 94 | 1011.5 |
| 20260905011539 | 77 | 74 | 0.0 | 0.0 | 0.00 | 0.89 | 0.86 | 94 | 1011.6 |
| 20260905011041 | 77 | 74 | 0.0 | 0.0 | 0.00 | 0.89 | 0.86 | 94 | 1011.5 |
| 20260905010539 | 77 | 74 | 0.0 | 0.0 | 0.00 | 0.89 | 0.86 | 94 | 1011.5 |
| 20260905010042 | 78 | 74 | 0.0 | 0.0 | 0.00 | 0.89 | 0.86 | 94 | 1011.4 |
| 20260905005539 | 78 | 74 | 0.0 | 0.0 | 0.00 | 0.89 | 0.86 | 94 | 1011.4 |
| 20260905005042 | 78 | 74 | 0.0 | 0.0 | 0.00 | 0.89 | 0.86 | 94 | 1011.3 |
| 20260905004539 | 78 | 74 | 0.0 | 0.0 | 0.00 | 0.89 | 0.86 | 93 | 1011.3 |
| 20260905004038 | 78 | 74 | 0.0 | 1.0 | 0.00 | 0.89 | 0.86 | 93 | 1011.1 |